Malmstrom A F B, Montana
Current Conditions -  °F | °C
As of 2:56 PM on Thursday 23 Oct 2014 (Local Time) from KGFA Reporting Station
Clear Clear  
Wind Chill: 62°   Ceiling: Unl
Heat Index: 62°   Visibility: 10mi
Dew Point: 37°   Wind: 24mph
Humidity: 40%   Direction: 230°SW
Pressure: 29.79"   Gusts: 37mph
Location:  47.5102°N, 111.1959°W
Report Text: KGFA 232056Z AUTO 23021G32KT 10SM CLR 17/03 A2979 RMK AO2 PK WND 24028/46 SLP087 T01660030 57014
Loading
Personal Weather Stations






























Interactive Weather Map New forecast layout! Learn more

10-Day Weather Forecast

Advertisements
Track Severe Weather on mobile